Latest Weather Observations for Grove

IDT60901

Issued at 6:41 pm EST Tuesday 27 September 2016 (issued every 10 minutes, with the page automatically refreshed every 10 minutes)

About weather observations | Map of Hobart area stations | Latest observations for Hobart area | Other Formats
Station Details ID: 094220 Name: GROVE (RESEARCH STATION) Lat: -42.99 Lon: 147.07 Height: 65.0 m
Data from the previous 72 hours. | See also: Recent months at Grove
Date/Time
EST
Temp
°C
App
Temp
°C
Dew
Point
°C
Rel
Hum
%
Delta-T
°C
Wind Press
QNH
hPa
Press
MSL
hPa
Rain since
9am
mm
Dir  Spd
km/h
Gust
km/h
Spd
kts
Gust
kts
27/06:30pm 11.7 8.8 4.9 63 3.1 S 9 13 5 7 - - 0.0
27/06:00pm 12.9 10.7 5.4 60 3.5 S 6 11 3 6 - - 0.0
27/05:30pm 13.3 10.1 4.9 57 3.9 E 11 19 6 10 - - 0.0
27/05:00pm 14.2 12.9 5.8 57 4.0 SSE 2 11 1 6 - - 0.0
27/04:30pm 14.4 11.4 6.1 57 4.0 SSW 11 17 6 9 - - 0.0
27/04:00pm 15.0 10.6 5.0 51 4.7 E 17 20 9 11 - - 0.0
27/03:30pm 17.1 13.6 5.3 45 5.7 ENE 13 17 7 9 - - 0.0
27/03:00pm 17.2 14.0 5.1 44 5.8 NE 11 19 6 10 - - 0.0
27/02:30pm 17.0 13.9 5.4 46 5.6 E 11 19 6 10 - - 0.0
27/02:00pm 17.4 15.2 3.4 39 6.5 S 4 9 2 5 - - 0.0
27/01:30pm 17.0 14.6 4.3 43 6.0 E 6 9 3 5 - - 0.0
27/01:00pm 16.5 14.0 3.8 42 5.9 ENE 6 9 3 5 - - 0.0
27/12:30pm 15.7 13.1 4.1 46 5.4 SE 7 11 4 6 - - 0.0
27/12:00pm 14.9 12.3 4.4 49 4.9 SSE 7 11 4 6 - - 0.0
27/11:30am 14.4 11.8 4.2 50 4.7 SSE 7 9 4 5 - - 0.0
27/11:00am 13.2 10.7 4.5 55 4.0 S 7 11 4 6 - - 0.0
27/10:30am 12.5 11.6 5.9 64 3.1 CALM 0 0 0 0 - - 0.0
27/10:00am 10.9 9.9 5.7 70 2.4 CALM 0 6 0 3 - - 0.0
27/09:30am 9.3 7.2 5.8 79 1.6 W 6 9 3 5 - - 0.0
27/09:00am 7.5 5.3 5.3 86 1.0 SW 6 7 3 4 - - 0.0
27/08:30am 6.4 3.9 4.8 89 0.7 WSW 7 9 4 5 - - 0.0
27/08:00am 5.5 4.3 4.8 95 0.3 CALM 0 0 0 0 - - 0.0
27/07:30am 4.0 2.7 4.0 100 0.0 CALM 0 0 0 0 - - 0.0
27/07:00am 2.7 1.1 2.7 100 0.0 CALM 0 0 0 0 - - 0.0
27/06:30am 1.2 -0.7 0.7 96 0.2 CALM 0 0 0 0 - - 0.0
27/06:00am 0.8 -1.1 0.5 98 0.1 CALM 0 0 0 0 - - 0.0
27/05:30am 0.8 -1.1 0.8 100 0.0 CALM 0 0 0 0 - - 0.0
27/05:00am 1.5 -0.7 1.0 96 0.2 N 2 6 1 3 - - 0.0
27/04:30am 1.0 -0.9 0.7 98 0.1 CALM 0 4 0 2 - - 0.0
27/04:00am 1.5 -0.3 1.2 98 0.1 CALM 0 0 0 0 - - 0.0
27/03:30am 2.2 0.5 1.7 96 0.2 CALM 0 0 0 0 - - 0.0
27/03:00am 2.5 0.9 2.5 100 0.0 CALM 0 0 0 0 - - 0.0
27/02:30am 2.3 0.7 2.3 100 0.0 CALM 0 0 0 0 - - 0.0
27/02:00am 3.3 0.7 3.1 99 0.1 NE 6 7 3 4 - - 0.0
27/01:30am 3.7 1.2 3.5 99 0.1 NNE 6 6 3 3 - - 0.0
27/01:00am 4.6 3.0 4.4 99 0.1 N 2 7 1 4 - - 0.0
27/12:30am 5.0 3.1 4.8 99 0.1 N 4 7 2 4 - - 0.0
27/12:00am 5.5 3.0 5.0 97 0.2 ENE 7 9 4 5 - - 0.0
 
Date/Time
EST
Temp
°C
App
Temp
°C
Dew
Point
°C
Rel
Hum
%
Delta-T
°C
Wind Press
QNH
hPa
Press
MSL
hPa
Rain since
9am
mm
Dir  Spd
km/h
Gust
km/h
Spd
kts
Gust
kts
26/11:30pm 7.0 6.1 5.9 93 0.5 CALM 0 0 0 0 - - 0.0
26/11:00pm 7.4 5.0 5.4 87 0.9 W 7 13 4 7 - - 0.0
26/10:30pm 8.0 6.1 6.5 90 0.7 NW 6 9 3 5 - - 0.0
26/10:00pm 8.9 7.1 7.2 89 0.8 ENE 6 6 3 3 - - 0.0
26/09:30pm 9.2 7.2 7.1 87 1.0 NE 7 9 4 5 - - 0.0
26/09:00pm 9.1 7.9 6.5 84 1.2 W 2 6 1 3 - - 0.0
26/08:30pm 9.1 6.9 6.3 83 1.3 WNW 7 11 4 6 - - 0.0
26/08:00pm 8.9 6.8 6.5 85 1.1 NW 7 9 4 5 - - 0.0
26/07:30pm 9.9 7.7 5.5 74 2.0 SW 6 7 3 4 - - 0.0
26/07:00pm 10.8 8.6 5.1 68 2.6 SW 6 11 3 6 - - 0.0
26/06:30pm 11.1 8.6 4.5 64 3.0 SW 7 13 4 7 - - 0.0
26/06:00pm 11.7 8.4 4.4 61 3.3 S 11 17 6 9 - - 0.0
26/05:30pm 12.2 8.9 4.5 59 3.5 E 11 17 6 9 - - 0.0
26/05:00pm 13.1 8.5 3.5 52 4.3 E 17 24 9 13 - - 0.0
26/04:30pm 12.8 8.5 3.1 51 4.3 E 15 22 8 12 - - 0.0
26/04:00pm 13.0 8.0 3.4 52 4.3 E 19 24 10 13 - - 0.0
26/03:30pm 14.3 12.0 0.7 39 5.8 ESE 2 7 1 4 - - 0.0
26/03:00pm 13.9 11.2 2.6 46 5.0 S 6 9 3 5 - - 0.0
26/02:30pm 14.2 11.1 1.2 41 5.6 SW 7 9 4 5 - - 0.0
26/02:00pm 13.7 9.7 0.4 40 5.6 SW 11 15 6 8 - - 0.0
26/01:30pm 14.0 10.0 0.6 40 5.7 SW 11 17 6 9 - - 0.0
26/01:00pm 14.7 11.6 0.4 37 6.1 SSW 6 11 3 6 - - 0.0
26/12:30pm 14.3 11.2 1.4 41 5.6 E 7 11 4 6 - - 0.0
26/12:00pm 13.6 10.5 1.3 43 5.3 SSE 7 13 4 7 - - 0.0
26/11:30am 13.0 9.9 1.6 46 4.9 W 7 9 4 5 - - 0.0
26/11:00am 12.8 9.5 2.3 49 4.6 W 9 13 5 7 - - 0.0
26/10:30am 12.2 8.7 1.4 47 4.6 SSW 9 15 5 8 - - 0.0
26/10:00am 11.5 8.6 1.6 50 4.2 S 6 7 3 4 - - 0.0
26/09:30am 10.9 8.8 3.9 62 3.1 S 4 6 2 3 - - 0.0
26/09:00am 8.8 7.5 4.3 73 2.0 CALM 0 6 0 3 - - 0.0
26/08:30am 6.5 3.9 4.4 86 0.9 SW 7 9 4 5 - - 0.0
26/08:00am 6.3 3.8 3.5 82 1.2 N 6 7 3 4 - - 0.0
26/07:30am 5.0 3.7 4.1 94 0.4 CALM 0 0 0 0 - - 0.0
26/07:00am 2.2 0.5 1.9 98 0.1 CALM 0 0 0 0 - - 0.0
26/06:30am 1.7 -1.4 1.4 98 0.1 N 7 7 4 4 - - 0.0
26/06:00am 1.0 -2.0 0.5 96 0.2 NE 6 6 3 3 - - 0.0
26/05:30am 1.3 -1.7 1.0 98 0.1 E 6 7 3 4 - - 0.0
26/05:00am 1.5 -1.5 1.0 96 0.2 NNE 6 9 3 5 - - 0.0
26/04:30am 1.7 -0.1 1.2 96 0.2 CALM 0 0 0 0 - - 0.0
26/04:00am 1.9 -0.6 1.6 98 0.1 N 4 7 2 4 - - 0.0
26/03:30am 2.1 -0.9 1.8 98 0.1 N 7 9 4 5 - - 0.0
26/03:00am 2.5 -0.5 2.0 96 0.2 NNE 7 9 4 5 - - 0.0
26/02:30am 2.7 0.3 1.9 94 0.3 NE 4 7 2 4 - - 0.0
26/02:00am 2.8 0.0 2.0 94 0.3 NNE 6 7 3 4 - - 0.0
26/01:30am 3.2 0.5 2.4 94 0.3 ENE 6 9 3 5 - - 0.0
26/01:00am 3.3 1.7 2.5 94 0.3 CALM 0 0 0 0 - - 0.0
26/12:30am 3.6 0.9 2.6 93 0.4 N 6 7 3 4 - - 0.0
26/12:00am 3.5 0.6 2.5 93 0.4 ENE 7 9 4 5 - - 0.0
 
Date/Time
EST
Temp
°C
App
Temp
°C
Dew
Point
°C
Rel
Hum
%
Delta-T
°C
Wind Press
QNH
hPa
Press
MSL
hPa
Rain since
9am
mm
Dir  Spd
km/h
Gust
km/h
Spd
kts
Gust
kts
25/11:30pm 3.1 0.7 2.1 93 0.4 NNE 4 7 2 4 - - 0.0
25/11:00pm 3.9 1.9 2.1 88 0.7 NW 2 6 1 3 - - 0.0
25/10:30pm 4.1 1.4 2.6 90 0.6 NNE 6 9 3 5 - - 0.0
25/10:00pm 4.1 1.2 2.4 89 0.7 E 7 9 4 5 - - 0.0
25/09:30pm 5.2 2.8 2.0 80 1.3 SSW 4 7 2 4 - - 0.0
25/09:00pm 6.2 2.8 1.7 73 1.8 W 9 13 5 7 - - 0.0
25/08:30pm 6.2 3.2 2.0 74 1.7 NNE 7 9 4 5 - - 0.0
25/08:00pm 6.9 4.8 1.7 69 2.1 NW 2 7 1 4 - - 0.0
25/07:30pm 7.9 4.1 1.5 64 2.6 WNW 11 15 6 8 - - 0.0
25/07:00pm 8.2 4.8 1.6 63 2.7 W 9 15 5 8 - - 0.0
25/06:30pm 9.1 5.2 1.3 58 3.2 WSW 11 15 6 8 - - 0.0
25/06:00pm 9.9 6.8 1.2 54 3.6 WSW 7 11 4 6 - - 0.0
25/05:30pm 10.8 6.8 0.6 49 4.2 WSW 11 17 6 9 - - 0.0
25/05:00pm 12.0 7.9 0.1 44 4.9 WSW 11 26 6 14 - - 0.0
25/04:30pm 13.2 7.2 -1.8 35 6.0 W 20 33 11 18 - - 0.0
25/04:00pm 13.1 7.6 -2.0 35 6.0 W 17 32 9 17 - - 0.0
25/03:30pm 13.3 7.6 0.5 41 5.4 W 20 32 11 17 - - 0.0
25/03:00pm 13.0 7.6 1.0 44 5.1 WSW 19 28 10 15 - - 0.0
25/02:30pm 12.9 6.0 -0.1 41 5.4 WSW 26 41 14 22 - - 0.0
25/02:00pm 13.7 7.8 1.4 43 5.3 WSW 22 33 12 18 - - 0.0
25/01:30pm 11.9 6.6 1.6 49 4.4 SW 19 32 10 17 - - 0.0
25/01:00pm 12.9 8.3 1.5 46 4.9 WSW 15 24 8 13 - - 0.0
25/12:30pm 13.1 7.8 2.1 47 4.8 WSW 19 28 10 15 - - 0.0
25/12:00pm 12.9 7.5 2.4 49 4.6 W 20 32 11 17 - - 0.0
25/11:30am 11.0 5.5 3.8 61 3.2 SW 22 35 12 19 - - 0.0
25/11:00am 11.6 6.9 3.2 56 3.7 SSW 17 24 9 13 - - 0.0
25/10:30am 12.5 8.4 4.1 56 3.8 SSW 15 24 8 13 - - 0.0
25/10:00am 11.4 6.4 4.6 63 3.1 SW 20 35 11 19 - - 0.0
25/09:30am 12.6 7.7 4.2 56 3.8 SW 19 32 10 17 - - 0.0
25/09:00am 11.7 7.0 3.1 55 3.8 WSW 17 28 9 15 - - 0.0
25/08:30am 11.6 7.0 3.8 59 3.5 SW 17 28 9 15 - - 0.0
25/08:00am 11.4 6.5 4.3 61 3.2 SW 19 26 10 14 - - 0.0
25/07:30am 11.4 7.2 5.6 67 2.7 SW 17 28 9 15 - - 0.0
25/07:00am 11.4 7.3 6.1 70 2.5 SW 17 24 9 13 - - 0.0
25/06:30am 11.8 8.4 6.1 68 2.7 SW 13 32 7 17 - - 0.0
25/06:00am 10.6 8.2 7.0 78 1.7 WNW 9 24 5 13 - - 0.0
25/05:30am 11.4 9.2 6.3 71 2.4 W 7 13 4 7 - - 0.0
25/05:00am 11.9 10.3 6.4 69 2.6 WNW 4 9 2 5 - - 0.0
25/04:30am 13.2 9.7 5.3 58 3.7 N 13 20 7 11 - - 0.0
25/04:00am 10.4 8.4 6.1 75 2.0 N 6 11 3 6 - - 0.0
25/03:30am 9.9 7.8 6.0 77 1.8 N 6 13 3 7 - - 0.0
25/03:00am 9.4 7.2 6.2 80 1.5 ENE 7 13 4 7 - - 0.0
25/02:30am 10.3 7.6 5.7 73 2.1 NE 9 11 5 6 - - 0.0
25/02:00am 11.9 9.5 5.2 63 3.1 N 7 11 4 6 - - 0.0
25/01:30am 13.2 9.4 4.0 53 4.2 N 13 19 7 10 - - 0.0
25/01:00am 13.7 9.4 3.2 49 4.7 N 15 20 8 11 - - 0.0
25/12:30am 14.1 9.5 3.5 49 4.8 N 17 26 9 14 - - 0.0
25/12:00am 14.3 9.8 4.4 51 4.6 N 17 35 9 19 - - 0.0
 
Date/Time
EST
Temp
°C
App
Temp
°C
Dew
Point
°C
Rel
Hum
%
Delta-T
°C
Wind Press
QNH
hPa
Press
MSL
hPa
Rain since
9am
mm
Dir  Spd
km/h
Gust
km/h
Spd
kts
Gust
kts
24/11:30pm 14.6 10.7 5.3 53 4.4 N 15 24 8 13 - - 0.0
24/11:00pm 15.0 9.8 5.3 52 4.6 N 22 39 12 21 - - 0.0
24/10:30pm 14.6 11.3 6.3 57 4.0 N 13 24 7 13 - - 0.0
24/10:00pm 14.4 10.9 7.3 62 3.5 NNE 15 26 8 14 - - 0.0
24/09:30pm 15.0 11.5 7.3 60 3.8 N 15 26 8 14 - - 0.0
24/09:00pm 14.0 12.3 8.4 69 2.8 N 7 15 4 8 - - 0.0
24/08:30pm 13.8 11.7 9.9 77 2.0 ESE 11 15 6 8 - - 0.0
24/08:00pm 13.8 11.7 9.9 77 2.0 ESE 11 15 6 8 - - 0.0
24/07:30pm 13.8 12.6 9.7 76 2.1 ENE 6 11 3 6 - - 0.0
24/07:00pm 14.2 12.6 10.2 77 2.1 NE 9 17 5 9 - - 0.0

Latest Capital City Observations: Canberra | Sydney | Melbourne | Brisbane | Adelaide | Perth | Hobart | Darwin

Other Formats:

Comma delimited format used in spreadsheet applications
http://www.bom.gov.au/fwo/IDT60901/IDT60901.95977.axf

JavaScript Object Notation format (JSON) in row-major order
http://www.bom.gov.au/fwo/IDT60901/IDT60901.95977.json